TUPELO weather

Tupelo Field
Tupelo, Arkansas, United States

Public forecast

Using degrees Fahrenheit for public forecast. Weather courtesy of forecast.io.

METAR (pilot weather report)

Closest report is Newport Regional Airport, 13.8 nm (25.6 km) N. Retrieved UTC (0 seconds ago):

TAF (pilot weather forecast)

Closest forecast is Jonesboro Municipal Airport, 38.1 nm (70.5 km) NE. Retrieved 2019/09/21 18:24 UTC (0 seconds ago):

TAF KJBR 211722Z 2118/2218 19012G18KT P6SM SCT050 BKN150 FM220100 18007KT P6SM FEW050 SCT250 FM221500 19016G23KT P6SM SCT050 BKN250